Time;durP1;ratioP1;P1;durP2;ratioP2;P2;SDS_P1;SDS_P2;PMS_P1;PMS_P2;Temp;Humidity;BMP_temperature;BMP_pressure;BME280_temperature;BME280_humidity;BME280_pressure;Samples;Min_cycle;Max_cycle;Signal;HPM_P1;HPM_P2
2022/05/23 00:00:15;;;;;;;11.00;10.00;;;24.40;99.90;;;;;;6184646;23;20055;-73
2022/05/23 00:02:40;;;;;;;17.42;12.13;;;24.40;99.90;;;;;;6184621;23;20002;-73
2022/05/23 00:05:07;;;;;;;13.32;11.38;;;24.20;99.90;;;;;;6184660;23;20429;-73
2022/05/23 00:07:35;;;;;;;13.82;11.50;;;24.20;99.90;;;;;;6184071;23;19997;-73
2022/05/23 00:10:02;;;;;;;12.38;11.10;;;24.20;99.90;;;;;;6184466;23;20009;-73
2022/05/23 00:12:28;;;;;;;15.88;12.07;;;24.20;99.90;;;;;;6184604;23;20005;-73
2022/05/23 00:14:54;;;;;;;16.00;10.80;;;24.20;99.90;;;;;;6184683;23;20421;-73
2022/05/23 00:17:21;;;;;;;16.67;11.60;;;24.20;99.90;;;;;;6183002;23;20456;-73
2022/05/23 00:19:48;;;;;;;16.50;11.77;;;24.20;99.90;;;;;;6184368;23;20437;-73
2022/05/23 00:22:14;;;;;;;14.18;11.48;;;24.20;99.90;;;;;;6182870;23;20376;-73
2022/05/23 00:24:44;;;;;;;15.40;11.48;;;24.20;99.90;;;;;;6184483;23;20056;-73
2022/05/23 00:27:13;;;;;;;14.15;11.73;;;24.20;99.90;;;;;;6184404;23;20016;-73
2022/05/23 00:29:40;;;;;;;14.90;10.98;;;24.20;99.90;;;;;;6184513;23;20005;-73
2022/05/23 00:37:35;;;;;;;15.52;11.25;;;24.10;99.90;;;;;;6184074;23;20063;-73
2022/05/23 00:40:01;;;;;;;15.68;11.68;;;24.10;99.90;;;;;;6184268;23;20441;-73
2022/05/23 00:45:15;;;;;;;13.95;10.57;;;24.00;99.90;;;;;;6184255;23;20012;-73
2022/05/23 00:47:42;;;;;;;14.25;11.98;;;23.90;99.90;;;;;;6184085;23;20337;-73
2022/05/23 00:50:10;;;;;;;16.85;12.30;;;23.80;99.90;;;;;;6184147;23;20060;-73
2022/05/23 00:52:43;;;;;;;12.55;11.35;;;23.80;99.90;;;;;;6184115;23;20463;-73
2022/05/23 00:55:26;;;;;;;17.50;11.68;;;23.80;99.90;;;;;;6184105;23;20380;-73
2022/05/23 00:57:57;;;;;;;18.23;12.48;;;23.80;99.90;;;;;;6184116;23;20001;-73
2022/05/23 01:00:23;;;;;;;19.13;13.27;;;23.80;99.90;;;;;;6184040;23;20005;-73
2022/05/23 01:02:54;;;;;;;20.92;12.70;;;23.80;99.90;;;;;;6184211;23;20147;-73
2022/05/23 01:05:21;;;;;;;16.85;12.82;;;23.80;99.90;;;;;;6184184;23;20025;-73
2022/05/23 01:07:47;;;;;;;18.95;12.38;;;23.80;99.90;;;;;;6183984;23;20052;-73
2022/05/23 01:10:12;;;;;;;18.27;12.10;;;23.80;99.90;;;;;;6184138;23;20388;-73
2022/05/23 01:12:39;;;;;;;21.27;12.68;;;23.70;99.90;;;;;;6184137;23;20011;-73
2022/05/23 01:15:17;;;;;;;26.05;11.38;;;23.80;99.90;;;;;;6183938;23;20389;-73
2022/05/23 01:17:43;;;;;;;18.17;11.95;;;23.80;99.90;;;;;;6183800;23;20005;-73
2022/05/23 01:20:09;;;;;;;16.80;11.70;;;23.70;99.90;;;;;;6183684;23;20180;-73
2022/05/23 01:23:06;;;;;;;22.20;11.95;;;23.80;99.90;;;;;;6183880;23;20001;-73
2022/05/23 01:25:45;;;;;;;12.52;11.15;;;23.70;99.90;;;;;;6183921;23;20501;-73
2022/05/23 01:28:12;;;;;;;15.63;11.10;;;23.70;99.90;;;;;;6183883;23;20425;-73
2022/05/23 01:30:40;;;;;;;12.90;11.48;;;23.70;99.90;;;;;;6183996;23;20444;-73
2022/05/23 01:33:08;;;;;;;14.82;11.88;;;23.70;99.90;;;;;;6183775;23;19993;-73
2022/05/23 01:35:34;;;;;;;13.90;10.98;;;23.70;99.90;;;;;;6183960;23;20501;-73
2022/05/23 01:37:59;;;;;;;16.42;11.32;;;23.70;99.90;;;;;;6183936;23;20001;-73
2022/05/23 01:40:26;;;;;;;15.00;10.80;;;23.60;99.90;;;;;;6183757;23;20333;-73
2022/05/23 01:42:52;;;;;;;16.00;10.70;;;23.60;99.90;;;;;;6183661;23;20004;-73
2022/05/23 01:45:23;;;;;;;13.38;10.10;;;23.60;99.90;;;;;;6183534;23;20024;-73
2022/05/23 01:47:49;;;;;;;12.77;10.70;;;23.50;99.90;;;;;;6183620;23;20000;-73
2022/05/23 01:50:15;;;;;;;15.57;11.63;;;23.60;99.90;;;;;;6183402;23;20459;-73
2022/05/23 01:52:41;;;;;;;15.45;11.60;;;23.60;99.90;;;;;;6183516;23;20341;-73
2022/05/23 01:55:07;;;;;;;20.88;11.15;;;23.60;99.90;;;;;;6183614;23;20004;-73
2022/05/23 01:57:34;;;;;;;15.02;10.75;;;23.50;99.90;;;;;;6183534;23;20233;-73
2022/05/23 02:02:47;;;;;;;14.55;11.00;;;23.50;99.90;;;;;;6183651;23;20516;-73
2022/05/23 02:05:15;;;;;;;13.68;10.98;;;23.40;99.90;;;;;;6183483;23;20024;-73
2022/05/23 02:07:41;;;;;;;15.93;11.45;;;23.40;99.90;;;;;;6183483;23;19998;-73
2022/05/23 02:10:11;;;;;;;12.90;10.68;;;23.40;99.90;;;;;;6183543;23;20005;-73
2022/05/23 02:12:37;;;;;;;14.77;11.05;;;23.40;99.90;;;;;;6183486;23;20119;-73
2022/05/23 02:15:04;;;;;;;20.65;11.60;;;23.30;99.90;;;;;;6183579;23;20009;-73
2022/05/23 02:17:31;;;;;;;13.18;10.90;;;23.30;99.90;;;;;;6183396;23;20005;-73
2022/05/23 02:20:00;;;;;;;17.63;12.68;;;23.20;99.90;;;;;;6183234;23;20009;-73
2022/05/23 02:22:26;;;;;;;14.13;11.10;;;23.30;99.90;;;;;;6183556;23;20024;-73
2022/05/23 02:24:51;;;;;;;16.45;10.80;;;23.30;99.90;;;;;;6183508;23;20437;-73
2022/05/23 02:27:17;;;;;;;13.60;10.60;;;23.30;99.90;;;;;;6183366;23;20053;-73
2022/05/23 02:29:43;;;;;;;12.77;11.38;;;23.30;99.90;;;;;;6184317;23;20005;-73
2022/05/23 02:32:10;;;;;;;12.15;10.13;;;23.20;99.90;;;;;;6185513;23;20341;-73
2022/05/23 02:34:39;;;;;;;18.73;11.40;;;23.20;99.90;;;;;;6185532;23;20060;-73
2022/05/23 02:37:05;;;;;;;11.82;10.55;;;23.20;99.90;;;;;;6185372;23;20001;-73
2022/05/23 02:39:30;;;;;;;14.55;10.95;;;23.10;99.90;;;;;;6185145;23;20012;-73
2022/05/23 02:41:56;;;;;;;18.42;10.63;;;23.10;99.90;;;;;;6185531;23;20025;-73
2022/05/23 02:44:22;;;;;;;14.68;10.43;;;23.20;99.90;;;;;;6185342;23;20001;-73
2022/05/23 02:46:47;;;;;;;10.68;9.40;;;23.20;99.90;;;;;;6185197;23;20115;-73
2022/05/23 02:49:13;;;;;;;11.75;10.13;;;23.20;99.90;;;;;;6185363;23;20540;-73
2022/05/23 02:51:39;;;;;;;17.38;10.55;;;23.20;99.90;;;;;;6185179;23;20003;-73
2022/05/23 02:54:06;;;;;;;12.25;9.48;;;23.20;99.90;;;;;;6185371;23;20030;-73
2022/05/23 02:56:34;;;;;;;14.90;11.35;;;23.20;99.90;;;;;;6185192;23;19997;-73
2022/05/23 02:59:00;;;;;;;12.82;9.45;;;23.20;99.90;;;;;;6185035;23;20219;-73
2022/05/23 03:01:26;;;;;;;15.60;10.38;;;23.20;99.90;;;;;;6185086;23;20076;-73
2022/05/23 03:03:52;;;;;;;11.95;10.30;;;23.10;99.90;;;;;;6185294;23;20023;-73
2022/05/23 03:06:18;;;;;;;15.20;10.25;;;23.10;99.90;;;;;;6185328;23;20072;-73
2022/05/23 03:08:44;;;;;;;16.92;9.93;;;23.10;99.90;;;;;;6184898;23;20011;-73
2022/05/23 03:11:10;;;;;;;13.60;9.20;;;23.10;99.90;;;;;;6185333;23;20009;-73
2022/05/23 03:13:36;;;;;;;12.95;9.57;;;23.10;99.90;;;;;;6185129;23;20429;-73
2022/05/23 03:16:07;;;;;;;10.07;8.95;;;23.10;99.90;;;;;;6184936;23;20028;-73
2022/05/23 03:18:33;;;;;;;12.70;9.30;;;23.10;99.90;;;;;;6185222;23;20333;-73
2022/05/23 03:26:58;;;;;;;11.82;9.85;;;23.10;99.90;;;;;;6185029;23;20005;-73
2022/05/23 03:26:59;;;;;;;13.40;9.95;;;23.00;99.90;;;;;;6184896;23;20307;-73
2022/05/23 03:29:25;;;;;;;11.25;9.95;;;23.10;99.90;;;;;;6185186;23;20429;-73
2022/05/23 03:31:51;;;;;;;18.15;8.90;;;23.10;99.90;;;;;;6185149;23;20008;-73
2022/05/23 03:34:17;;;;;;;10.35;9.35;;;23.00;99.90;;;;;;6185062;23;20005;-73
2022/05/23 03:36:42;;;;;;;11.02;8.40;;;23.10;99.90;;;;;;6184799;23;20001;-73
2022/05/23 03:39:09;;;;;;;10.10;8.70;;;23.10;99.90;;;;;;6184802;23;20392;-73
2022/05/23 03:41:35;;;;;;;11.77;9.63;;;23.10;99.90;;;;;;6184814;23;20472;-73
2022/05/23 03:44:01;;;;;;;10.93;9.00;;;23.10;99.90;;;;;;6184693;23;20067;-73
2022/05/23 03:46:28;;;;;;;9.75;8.52;;;23.20;99.90;;;;;;6184790;23;20473;-73
2022/05/23 03:48:54;;;;;;;12.48;8.70;;;23.20;99.90;;;;;;6184529;23;20291;-73
2022/05/23 03:51:21;;;;;;;13.05;9.70;;;23.20;99.90;;;;;;6184648;23;20012;-73
2022/05/23 03:53:49;;;;;;;10.55;9.20;;;23.20;99.90;;;;;;6184771;23;20012;-73
2022/05/23 03:56:15;;;;;;;13.65;9.32;;;23.10;99.90;;;;;;6184792;23;20009;-73
2022/05/23 03:58:40;;;;;;;17.30;10.18;;;23.10;99.90;;;;;;6184809;23;20451;-73
2022/05/23 04:01:12;;;;;;;18.00;10.45;;;23.20;99.90;;;;;;6184840;23;20007;-73
2022/05/23 04:03:38;;;;;;;13.90;8.48;;;23.20;99.90;;;;;;6184733;23;20503;-73
2022/05/23 04:06:04;;;;;;;12.27;9.68;;;23.20;99.90;;;;;;6184639;23;20005;-73
2022/05/23 04:08:30;;;;;;;12.98;9.15;;;23.20;99.90;;;;;;6184509;23;20337;-73
2022/05/23 04:10:56;;;;;;;14.77;9.52;;;23.20;99.90;;;;;;6184910;23;20001;-73
2022/05/23 04:13:22;;;;;;;14.45;9.57;;;23.20;99.90;;;;;;6184691;23;20033;-73
2022/05/23 04:15:49;;;;;;;10.73;8.88;;;23.20;99.90;;;;;;6184624;23;20005;-73
2022/05/23 04:18:16;;;;;;;11.32;8.32;;;23.20;99.90;;;;;;6184509;23;20429;-73
2022/05/23 04:20:42;;;;;;;13.98;9.23;;;23.20;99.90;;;;;;6184505;23;20327;-73
2022/05/23 04:23:08;;;;;;;10.95;8.93;;;23.20;99.90;;;;;;6184403;23;20001;-73
2022/05/23 04:25:39;;;;;;;13.52;9.43;;;23.20;99.90;;;;;;6184497;23;20302;-73
2022/05/23 04:28:05;;;;;;;13.30;9.75;;;23.10;99.90;;;;;;6184132;23;20389;-74
2022/05/23 04:30:30;;;;;;;14.55;9.55;;;23.10;99.90;;;;;;6184574;23;20017;-73
2022/05/23 04:35:40;;;;;;;15.38;9.60;;;23.10;99.90;;;;;;6184603;23;20016;-73
2022/05/23 04:38:06;;;;;;;14.95;9.65;;;23.10;99.90;;;;;;6183260;23;20012;-73
2022/05/23 04:40:32;;;;;;;14.05;9.10;;;23.10;99.90;;;;;;6181858;23;20088;-73
2022/05/23 04:42:58;;;;;;;16.60;9.82;;;23.10;99.90;;;;;;6183036;23;19997;-73
2022/05/23 04:45:23;;;;;;;15.35;9.68;;;23.20;99.90;;;;;;6182943;23;20012;-73
2022/05/23 04:50:34;;;;;;;14.10;9.60;;;23.10;99.90;;;;;;6183189;23;20455;-73
2022/05/23 04:53:01;;;;;;;11.07;8.80;;;23.10;99.90;;;;;;6182569;23;20076;-73
2022/05/23 04:55:27;;;;;;;15.93;9.68;;;23.20;99.90;;;;;;6182976;23;20090;-73
2022/05/23 04:57:59;;;;;;;12.95;9.18;;;23.20;99.90;;;;;;6182810;23;20341;-73
2022/05/23 05:00:26;;;;;;;10.73;9.43;;;23.20;99.90;;;;;;6182958;23;20494;-73
2022/05/23 05:02:52;;;;;;;12.55;8.55;;;23.20;99.90;;;;;;6182849;23;20068;-73
2022/05/23 05:05:18;;;;;;;14.30;9.23;;;23.30;99.90;;;;;;6182871;23;20025;-73
2022/05/23 05:07:45;;;;;;;11.23;9.73;;;23.30;99.90;;;;;;6183350;23;20052;-73
2022/05/23 05:10:11;;;;;;;15.70;9.55;;;23.30;99.90;;;;;;6184078;23;20315;-73
2022/05/23 05:12:37;;;;;;;15.02;10.07;;;23.20;99.90;;;;;;6183923;23;20005;-73
2022/05/23 05:15:03;;;;;;;17.45;9.75;;;23.30;99.90;;;;;;6184205;23;20005;-73
2022/05/23 05:17:29;;;;;;;12.98;9.55;;;23.30;99.90;;;;;;6183094;23;20082;-73
2022/05/23 05:19:55;;;;;;;15.45;9.00;;;23.40;99.90;;;;;;6181403;23;20492;-73
2022/05/23 05:22:21;;;;;;;16.25;9.52;;;23.40;99.90;;;;;;6181623;23;20027;-73
2022/05/23 05:24:49;;;;;;;13.88;9.82;;;23.40;99.90;;;;;;6181488;23;20044;-73
2022/05/23 05:27:15;;;;;;;12.23;9.57;;;23.50;99.90;;;;;;6181258;23;20028;-73
2022/05/23 05:29:41;;;;;;;19.13;10.05;;;23.50;99.90;;;;;;6182016;23;20031;-73
2022/05/23 05:32:20;;;;;;;11.18;9.07;;;23.50;99.90;;;;;;6181738;23;20080;-73
2022/05/23 05:35:02;;;;;;;11.48;10.05;;;23.50;99.90;;;;;;6181520;23;20005;-73
2022/05/23 05:37:30;;;;;;;;;;;23.60;99.90;;;;;;6181858;23;20005;-73
2022/05/23 05:39:58;;;;;;;16.40;11.02;;;23.70;99.90;;;;;;6181486;23;19904;-73
2022/05/23 05:42:36;;;;;;;13.45;9.85;;;23.70;99.90;;;;;;6181556;23;20012;-73
2022/05/23 05:45:11;;;;;;;12.65;10.18;;;23.70;99.90;;;;;;6179545;23;20384;-73
2022/05/23 05:47:41;;;;;;;13.38;9.68;;;23.70;99.90;;;;;;6182631;23;20005;-73
2022/05/23 05:50:14;;;;;;;14.95;10.75;;;23.80;99.90;;;;;;6183693;23;20005;-73
2022/05/23 05:52:40;;;;;;;16.92;11.95;;;23.80;99.90;;;;;;6183659;23;20005;-73
2022/05/23 05:55:08;;;;;;;15.10;10.18;;;23.80;99.90;;;;;;6183640;23;20005;-73
2022/05/23 05:57:34;;;;;;;15.32;10.88;;;23.80;99.90;;;;;;6183521;23;20080;-73
2022/05/23 05:59:59;;;;;;;13.50;10.95;;;23.90;99.90;;;;;;6183529;23;20012;-73
2022/05/23 06:02:25;;;;;;;16.38;10.55;;;23.90;99.90;;;;;;6183506;23;20005;-73
2022/05/23 06:04:51;;;;;;;14.07;11.52;;;23.90;99.90;;;;;;6183085;23;20333;-73
2022/05/23 06:12:53;;;;;;;20.45;12.85;;;24.00;99.90;;;;;;6183464;23;20071;-73
2022/05/23 06:15:23;;;;;;;16.92;13.00;;;24.00;99.90;;;;;;6183624;23;20429;-73
2022/05/23 06:17:51;;;;;;;17.30;13.27;;;24.10;99.90;;;;;;6183525;23;20055;-73
2022/05/23 06:20:18;;;;;;;18.88;13.57;;;24.10;99.90;;;;;;6183646;23;20013;-73
2022/05/23 06:22:44;;;;;;;18.77;14.23;;;24.10;99.90;;;;;;6183773;23;20025;-73
2022/05/23 06:25:11;;;;;;;13.73;11.90;;;24.10;99.90;;;;;;6183417;23;20002;-73
2022/05/23 06:27:37;;;;;;;16.70;11.95;;;24.10;99.90;;;;;;6183301;23;20047;-73
2022/05/23 06:30:06;;;;;;;14.10;12.63;;;24.20;99.90;;;;;;6181923;23;20005;-73
2022/05/23 06:32:32;;;;;;;16.17;12.48;;;24.20;99.90;;;;;;6183512;23;20028;-73
2022/05/23 06:35:01;;;;;;;18.10;12.73;;;24.20;99.90;;;;;;6183294;23;20076;-73
2022/05/23 06:37:27;;;;;;;18.20;13.85;;;24.30;99.90;;;;;;6183288;23;20059;-73
2022/05/23 06:39:53;;;;;;;17.83;13.68;;;24.30;99.90;;;;;;6182949;23;20010;-73
2022/05/23 06:42:19;;;;;;;18.08;13.15;;;24.30;99.90;;;;;;6183210;23;20016;-73
2022/05/23 06:44:45;;;;;;;24.77;13.80;;;24.40;99.90;;;;;;6183252;23;20008;-73
2022/05/23 06:47:10;;;;;;;16.65;13.10;;;24.40;99.90;;;;;;6183247;23;20076;-73
2022/05/23 06:49:36;;;;;;;16.98;13.48;;;24.40;99.90;;;;;;6183397;23;20005;-73
2022/05/23 06:52:05;;;;;;;20.30;14.40;;;24.40;99.90;;;;;;6183550;23;20390;-73
2022/05/23 06:54:31;;;;;;;18.08;13.50;;;24.50;99.90;;;;;;6183368;23;20059;-73
2022/05/23 06:56:57;;;;;;;17.95;13.98;;;24.50;99.90;;;;;;6183229;23;20009;-73
2022/05/23 06:59:22;;;;;;;20.25;13.60;;;24.50;99.90;;;;;;6183351;23;20059;-74
2022/05/23 07:01:48;;;;;;;16.85;13.02;;;24.60;99.90;;;;;;6183375;23;19997;-74
2022/05/23 07:04:14;;;;;;;17.38;13.85;;;24.60;99.90;;;;;;6181705;23;20385;-74
2022/05/23 07:12:27;;;;;;;23.48;15.40;;;24.70;99.90;;;;;;6183430;23;20399;-74
2022/05/23 07:14:56;;;;;;;21.08;15.55;;;24.70;99.90;;;;;;6181827;23;20020;-74
2022/05/23 07:17:27;;;;;;;26.63;16.67;;;24.80;99.90;;;;;;6185011;23;20009;-74
2022/05/23 07:19:53;;;;;;;29.70;15.18;;;24.80;99.90;;;;;;6184929;23;20070;-74
2022/05/23 07:22:18;;;;;;;26.98;16.00;;;24.80;99.90;;;;;;6185078;23;20008;-74
2022/05/23 07:24:44;;;;;;;16.70;13.48;;;24.80;99.90;;;;;;6183454;23;20063;-74
2022/05/23 07:27:12;;;;;;;20.40;13.57;;;24.80;99.90;;;;;;6185105;23;20422;-74
2022/05/23 07:29:38;;;;;;;23.48;12.02;;;24.80;99.90;;;;;;6183422;23;20009;-74
2022/05/23 07:32:05;;;;;;;20.77;13.05;;;24.80;99.90;;;;;;6185142;23;20023;-74
2022/05/23 07:34:31;;;;;;;17.75;12.13;;;24.80;99.90;;;;;;6185102;23;20005;-73
2022/05/23 07:36:59;;;;;;;21.92;12.88;;;24.90;99.90;;;;;;6183165;23;20005;-73
2022/05/23 07:39:24;;;;;;;22.05;13.93;;;25.00;99.90;;;;;;6185014;23;20329;-73
2022/05/23 07:41:50;;;;;;;23.40;14.82;;;25.00;99.90;;;;;;6184957;23;19998;-73
2022/05/23 07:44:16;;;;;;;25.05;13.43;;;25.00;99.90;;;;;;6182970;23;20005;-74
2022/05/23 07:46:43;;;;;;;18.70;12.50;;;25.20;99.90;;;;;;6184749;23;20008;-73
2022/05/23 07:49:09;;;;;;;24.60;14.15;;;25.30;99.90;;;;;;6184865;23;19993;-73
2022/05/23 07:51:34;;;;;;;20.48;13.00;;;25.30;99.90;;;;;;6183087;23;20015;-74
2022/05/23 08:02:18;;;;;;;15.57;12.10;;;25.30;99.90;;;;;;6184708;23;20448;-73
2022/05/23 08:04:44;;;;;;;17.23;12.10;;;25.40;99.90;;;;;;6184689;23;20001;-73
2022/05/23 08:07:11;;;;;;;15.75;12.80;;;25.50;99.90;;;;;;6184430;23;20021;-73
2022/05/23 08:09:39;;;;;;;17.38;13.07;;;25.50;99.90;;;;;;6184462;23;20013;-73
2022/05/23 08:12:06;;;;;;;21.83;13.68;;;25.50;99.90;;;;;;6184664;23;20433;-73
2022/05/23 08:14:32;;;;;;;16.67;12.48;;;25.50;99.90;;;;;;6182862;23;20056;-73
2022/05/23 08:16:59;;;;;;;15.95;11.68;;;25.50;99.90;;;;;;6184512;23;20369;-73
2022/05/23 08:19:24;;;;;;;17.40;12.80;;;25.60;99.90;;;;;;6184457;23;20009;-73
2022/05/23 08:21:56;;;;;;;14.63;11.55;;;25.60;99.90;;;;;;6182893;23;20063;-74
2022/05/23 08:24:22;;;;;;;21.50;14.98;;;25.70;99.90;;;;;;6182982;23;20005;-73
2022/05/23 08:26:47;;;;;;;17.35;13.32;;;25.70;99.90;;;;;;6182511;23;20380;-73
2022/05/23 08:29:14;;;;;;;19.40;13.88;;;25.70;99.90;;;;;;6184372;23;20001;-74
2022/05/23 08:31:40;;;;;;;17.67;13.88;;;25.70;99.90;;;;;;6182950;23;20009;-73
2022/05/23 08:34:06;;;;;;;17.50;13.68;;;25.80;99.90;;;;;;6184417;23;20377;-73
2022/05/23 08:36:33;;;;;;;21.75;14.88;;;25.80;99.90;;;;;;6184452;23;19997;-73
2022/05/23 08:38:59;;;;;;;20.15;14.63;;;25.90;99.90;;;;;;6184428;23;20512;-73
2022/05/23 08:41:41;;;;;;;19.33;14.85;;;25.90;99.90;;;;;;6184084;23;20012;-73
2022/05/23 08:44:39;;;;;;;22.23;18.85;;;26.00;99.90;;;;;;6184586;23;20051;-73
2022/05/23 08:47:11;;;;;;;25.63;18.08;;;26.00;99.90;;;;;;6182739;23;20011;-73
2022/05/23 08:50:01;;;;;;;22.27;16.17;;;26.00;99.90;;;;;;6184274;23;20001;-73
2022/05/23 08:52:37;;;;;;;21.63;15.95;;;26.10;99.90;;;;;;6184375;23;20084;-73
2022/05/23 08:55:23;;;;;;;22.98;16.38;;;26.20;99.90;;;;;;6184052;23;20005;-74
2022/05/23 08:58:00;;;;;;;22.80;17.08;;;26.10;99.90;;;;;;6181526;23;20046;-73
2022/05/23 09:00:35;;;;;;;27.95;16.88;;;26.20;99.90;;;;;;6184013;23;20040;-73
2022/05/23 09:03:19;;;;;;;26.00;17.85;;;26.20;99.90;;;;;;6182644;23;20028;-73
2022/05/23 09:06:20;;;;;;;28.30;18.38;;;26.30;99.90;;;;;;6182747;23;20428;-73
2022/05/23 09:08:53;;;;;;;22.50;18.10;;;26.30;99.90;;;;;;6182375;23;20016;-73
2022/05/23 09:11:37;;;;;;;20.38;16.83;;;26.30;99.90;;;;;;6183990;23;20495;-73
2022/05/23 09:14:09;;;;;;;37.63;17.58;;;26.30;99.90;;;;;;6184031;23;20001;-73
2022/05/23 09:16:40;;;;;;;29.45;18.38;;;26.40;99.90;;;;;;6183792;23;20084;-73
2022/05/23 09:19:25;;;;;;;;;;;26.30;99.90;;;;;;6182798;23;20001;-73
2022/05/23 09:24:53;;;;;;;21.88;18.30;;;26.30;99.90;;;;;;6123286;23;20010;-73
2022/05/23 09:27:30;;;;;;;24.42;17.75;;;26.40;99.90;;;;;;6121697;23;20501;-73
2022/05/23 09:29:58;;;;;;;25.30;20.40;;;26.50;99.90;;;;;;6097361;23;20102;-74
2022/05/23 09:33:01;;;;;;;27.73;20.35;;;26.50;99.90;;;;;;6112005;23;20328;-73
2022/05/23 09:35:48;;;;;;;30.88;21.50;;;26.70;99.90;;;;;;6179101;23;20067;-73
2022/05/23 09:38:29;;;;;;;28.73;21.98;;;26.80;99.90;;;;;;6178325;23;20004;-73
2022/05/23 09:40:56;;;;;;;35.78;23.02;;;26.80;99.90;;;;;;6177095;23;20020;-73
2022/05/23 09:49:13;;;;;;;23.15;17.13;;;26.80;99.90;;;;;;6178522;23;20352;-73
2022/05/23 09:51:58;;;;;;;24.70;19.23;;;26.80;99.90;;;;;;6176462;23;20004;-74
2022/05/23 09:54:46;;;;;;;27.40;20.30;;;26.90;99.90;;;;;;6178880;23;20001;-73
2022/05/23 09:57:52;;;;;;;23.98;20.20;;;27.00;99.90;;;;;;6178786;23;20311;-73
2022/05/23 10:00:18;;;;;;;24.35;19.27;;;27.00;99.90;;;;;;6133400;23;20015;-73
2022/05/23 10:03:02;;;;;;;25.25;20.52;;;27.10;99.90;;;;;;6176726;23;20356;-72
2022/05/23 10:05:30;;;;;;;21.58;18.83;;;26.90;99.90;;;;;;6178723;23;19997;-72
2022/05/23 10:08:02;;;;;;;24.48;17.85;;;26.90;99.90;;;;;;6177374;23;20001;-72
2022/05/23 10:10:37;;;;;;;25.35;18.90;;;27.00;99.90;;;;;;6176436;23;20097;-72
2022/05/23 10:13:24;;;;;;;22.80;17.17;;;26.90;99.90;;;;;;6176917;23;20040;-72
2022/05/23 10:15:59;;;;;;;26.20;18.40;;;27.10;99.90;;;;;;6176259;23;20417;-72
2022/05/23 10:18:45;;;;;;;23.90;19.60;;;27.20;99.90;;;;;;6176317;23;20009;-72
2022/05/23 10:21:23;;;;;;;26.60;17.95;;;27.20;99.90;;;;;;6176449;23;20013;-72
2022/05/23 10:24:03;;;;;;;24.80;17.42;;;27.20;99.90;;;;;;6178095;23;20318;-72
2022/05/23 10:26:33;;;;;;;24.70;17.38;;;27.20;99.90;;;;;;6176636;23;20005;-72
2022/05/23 10:29:26;;;;;;;24.13;15.65;;;27.30;99.90;;;;;;6177931;23;19996;-72
2022/05/23 10:32:02;;;;;;;22.80;18.45;;;27.30;99.90;;;;;;6179066;23;19997;-72
2022/05/23 10:34:50;;;;;;;20.02;15.40;;;27.30;99.90;;;;;;6178442;23;20081;-72
2022/05/23 10:37:20;;;;;;;21.17;15.15;;;27.20;99.90;;;;;;6179734;23;20429;-73
2022/05/23 10:42:48;;;;;;;;;;;27.10;99.90;;;;;;6179327;23;20460;-73
2022/05/23 10:45:36;;;;;;;22.13;16.85;;;27.00;99.90;;;;;;6179407;23;19900;-74
2022/05/23 10:48:34;;;;;;;23.67;16.77;;;27.10;99.90;;;;;;6178186;23;20001;-73
2022/05/23 10:51:30;;;;;;;20.73;15.75;;;27.00;99.90;;;;;;6162794;23;20009;-73
2022/05/23 10:54:30;;;;;;;19.58;16.02;;;27.00;99.90;;;;;;6182219;23;20084;-73
2022/05/23 10:57:11;;;;;;;20.25;14.13;;;27.00;99.90;;;;;;6180827;23;20008;-73
2022/05/23 10:59:57;;;;;;;20.88;15.05;;;27.10;99.90;;;;;;6181474;23;20001;-73
2022/05/23 11:02:49;;;;;;;19.83;14.25;;;27.10;99.90;;;;;;6182326;23;20546;-72
2022/05/23 11:05:23;;;;;;;15.00;13.45;;;27.30;99.90;;;;;;6180438;23;20430;-73
2022/05/23 11:08:01;;;;;;;17.23;14.60;;;27.50;99.90;;;;;;6180564;23;20001;-72
2022/05/23 11:10:53;;;;;;;23.88;15.75;;;27.70;99.90;;;;;;6180952;23;20076;-72
2022/05/23 11:13:22;;;;;;;;;;;27.80;99.90;;;;;;6180737;23;20377;-72
2022/05/23 11:16:06;;;;;;;17.88;14.43;;;27.90;99.90;;;;;;6180241;23;19904;-72
2022/05/23 11:19:09;;;;;;;17.52;14.30;;;27.90;99.90;;;;;;6179839;23;20009;-72
2022/05/23 11:22:04;;;;;;;16.70;13.23;;;27.70;99.90;;;;;;6177923;23;20013;-73
2022/05/23 11:24:45;;;;;;;18.60;14.38;;;27.60;99.90;;;;;;6160397;23;20005;-72
2022/05/23 11:36:09;;;;;;;18.70;15.00;;;28.30;99.90;;;;;;6117238;23;20390;-72
2022/05/23 11:38:45;;;;;;;14.82;13.43;;;28.10;99.90;;;;;;6154178;23;20017;-72
2022/05/23 11:41:32;;;;;;;17.08;14.32;;;28.10;99.90;;;;;;6179902;23;20001;-72
2022/05/23 11:43:59;;;;;;;19.17;13.00;;;28.00;99.90;;;;;;6181977;23;20280;-72
2022/05/23 11:46:28;;;;;;;15.02;13.52;;;28.00;99.90;;;;;;6179727;23;20001;-72
2022/05/23 11:49:00;;;;;;;16.95;13.98;;;28.00;99.90;;;;;;6181763;23;20307;-72
2022/05/23 11:51:37;;;;;;;18.10;15.07;;;28.00;99.90;;;;;;6181604;23;20016;-72
2022/05/23 11:54:07;;;;;;;14.52;12.98;;;28.10;99.90;;;;;;6182128;23;20001;-72
2022/05/23 11:56:35;;;;;;;16.88;13.00;;;28.20;99.90;;;;;;6181645;23;20036;-72
2022/05/23 11:59:02;;;;;;;16.65;14.18;;;28.20;99.90;;;;;;6180945;23;20087;-72
2022/05/23 12:01:30;;;;;;;16.25;14.55;;;28.20;99.90;;;;;;6181334;23;20005;-72
2022/05/23 12:03:56;;;;;;;16.13;14.40;;;28.10;99.90;;;;;;6181893;23;20541;-73
2022/05/23 12:06:22;;;;;;;16.20;13.15;;;28.00;99.90;;;;;;6180977;23;20367;-72
2022/05/23 12:09:06;;;;;;;15.98;14.15;;;28.00;99.90;;;;;;6181730;23;20048;-72
2022/05/23 12:11:36;;;;;;;16.20;13.82;;;28.00;99.90;;;;;;6181168;23;20001;-72
2022/05/23 12:14:33;;;;;;;15.13;13.35;;;28.00;99.90;;;;;;6181920;23;20014;-72
2022/05/23 12:17:07;;;;;;;14.82;13.20;;;28.00;99.90;;;;;;6162181;23;20009;-72
2022/05/23 12:19:38;;;;;;;14.10;12.68;;;28.00;99.90;;;;;;6180608;23;20131;-72
2022/05/23 12:22:23;;;;;;;;;;;28.00;99.90;;;;;;6182362;23;20001;-73
2022/05/23 12:25:15;;;;;;;17.17;12.80;;;28.00;99.90;;;;;;6178725;23;19900;-72
2022/05/23 12:28:00;;;;;;;;;;;28.00;99.90;;;;;;6174553;23;20001;-80
2022/05/23 12:30:26;;;;;;;17.88;13.98;;;28.00;99.90;;;;;;6179041;23;19900;-81
2022/05/23 12:33:04;;;;;;;16.60;13.35;;;28.00;99.90;;;;;;6178375;23;20440;-80
2022/05/23 12:35:32;;;;;;;17.15;14.10;;;28.00;99.90;;;;;;6178258;23;20001;-81
2022/05/23 12:38:10;;;;;;;17.67;13.35;;;28.00;99.90;;;;;;6178885;23;20055;-81
2022/05/23 12:40:56;;;;;;;17.10;12.60;;;28.00;99.90;;;;;;6178638;23;20001;-80
2022/05/23 12:43:49;;;;;;;20.25;14.18;;;28.00;99.90;;;;;;6179135;23;20029;-80
2022/05/23 12:46:39;;;;;;;22.58;13.50;;;28.00;99.90;;;;;;6179547;23;20376;-81
2022/05/23 12:49:15;;;;;;;14.10;12.55;;;28.00;99.90;;;;;;6178765;23;20012;-80
2022/05/23 12:51:50;;;;;;;16.50;12.95;;;28.10;99.90;;;;;;6178825;23;20028;-80
2022/05/23 12:54:34;;;;;;;14.60;12.38;;;28.10;99.90;;;;;;6177119;23;20051;-81
2022/05/23 12:57:21;;;;;;;19.35;13.43;;;28.20;99.90;;;;;;6177105;23;20005;-80
2022/05/23 12:59:52;;;;;;;14.90;12.80;;;28.20;99.90;;;;;;6179049;23;20005;-81
2022/05/23 13:02:50;;;;;;;13.80;11.75;;;28.20;99.90;;;;;;6177283;23;20009;-80
2022/05/23 13:05:55;;;;;;;16.67;11.82;;;28.20;99.90;;;;;;6159222;23;20005;-80
2022/05/23 13:08:26;;;;;;;20.38;12.38;;;28.30;99.90;;;;;;6179594;23;20012;-80
2022/05/23 13:11:04;;;;;;;12.82;11.50;;;28.70;99.90;;;;;;6179370;23;20962;-81
2022/05/23 13:13:35;;;;;;;16.55;11.43;;;29.00;99.90;;;;;;6178198;23;20498;-81
2022/05/23 13:16:24;;;;;;;11.87;10.63;;;29.40;99.70;;;;;;6178562;23;20016;-81
2022/05/23 13:27:09;;;;;;;16.50;12.40;;;29.20;98.30;;;;;;6183558;23;20016;-72
2022/05/23 13:29:36;;;;;;;14.98;11.80;;;29.20;98.00;;;;;;6175195;23;20071;-73
2022/05/23 13:32:07;;;;;;;13.10;11.68;;;29.10;98.60;;;;;;6177198;23;20425;-72
2022/05/23 13:34:38;;;;;;;13.20;10.97;;;29.00;98.40;;;;;;6178930;23;20084;-72
2022/05/23 13:37:06;;;;;;;16.25;11.77;;;29.00;98.80;;;;;;6178636;23;20005;-72
2022/05/23 13:39:41;;;;;;;14.93;11.32;;;29.10;99.20;;;;;;6177851;23;20056;-72
2022/05/23 13:42:21;;;;;;;13.88;12.52;;;29.00;98.80;;;;;;6180236;23;20074;-72
2022/05/23 13:44:47;;;;;;;23.63;12.95;;;28.90;99.00;;;;;;6179496;23;20076;-73
2022/05/23 13:47:29;;;;;;;14.27;11.48;;;28.90;99.20;;;;;;6181047;23;20007;-72
2022/05/23 13:50:08;;;;;;;16.67;11.55;;;28.90;98.90;;;;;;6180938;23;20560;-73
2022/05/23 13:52:49;;;;;;;13.32;11.82;;;28.80;99.10;;;;;;6179481;23;20425;-74
2022/05/23 13:55:25;;;;;;;14.63;11.80;;;28.80;98.60;;;;;;6179125;23;20051;-73
2022/05/23 13:58:13;;;;;;;15.63;12.23;;;28.70;99.30;;;;;;6180062;23;20318;-73
2022/05/23 14:00:47;;;;;;;17.92;12.32;;;28.60;98.90;;;;;;6179894;23;20080;-73